Puunene, HI

2:54 AM HST on April 19, 2015 (GMT -1000)
Up Country Maui | | Change Station
CLOSE
Current Station
Personal Weather Station
Location: Makawao, HI
Elevation: 1562 ft
Nearby Weather Stations

Elev 1562 ft 20.86 °N, 156.32 °W | Updated 3 minutes ago

Partly Cloudy
Partly Cloudy
66.0 °F
Feels Like 66.0 °F
N
0.0
Wind Variable Wind from North
Gusts 0.0 mph

Today
High -- | Low -- °F
--% Chance of Precip.
Yesterday
High -- | Low -- °F
Precip. -- in
6:03 AM 6:45 PM
New Moon, 1% visible
Pressure 30.09 in
Visibility 10.0 miles
Clouds Few 3000 ft
Dew Point 60 °F
Humidity 81%
Rainfall 0.00 in
Snow Depth Not available.
UV 0.0 out of 12
Pollen Not available.
Air Quality Not available.
Flu Activity Regional
METAR PHNY 191158Z AUTO 04004KT 10SM FEW030 17/16 A3013 RMK AO2 SLP187 T01720156 10206 20172 58012

More Conditions Fewer Conditions

Pressure 30.09 in
Visibility 10.0 miles
Clouds Few 3000 ft
Dew Point 60 °F
Humidity 81%
Rainfall 0.00 in
Snow Depth Not available.
UV 0.0 out of 12
Pollen Not available.
Air Quality Not available.
Flu Activity Regional
METAR PHNY 191158Z AUTO 04004KT 10SM FEW030 17/16 A3013 RMK AO2 SLP187 T01720156 10206 20172 58012

More Conditions Fewer Conditions

10-Day Weather Forecast

Almanac

Astronomy

Apr. 19, 2015 Rise Set
Actual Time
Civil Twilight
Nautical Twilight
Astronomical Twilight
Moon
Length of Visible Light
Length of Day
Tomorrow will be .
, % of the Moon is Illuminated

Today's Extremes

State Highs State Lows

Community

WunderPhotos

Upload Photos

1,814,775 photos uploaded!

WunderBlogs® & News

Nearby

Air Quality

  Air Quality AQ Index Pollutant
Not available.

Snow Depth

Station Depth Elevation

Earthquake Activity

City Distance Mag. Time & Date
Minimum magnitude displayed is 2.5.

Coastal Water Temperatures

Place Temperature

Stations

Nearby Weather Stations

Station Location Temp. Windchill Dew Point Humidity Wind Precip. Elev Updated Type